createdAt,value
2018-09-15T00:00:47.041Z,12.00
2018-09-15T00:03:14.115Z,12.93
2018-09-15T00:05:41.075Z,13.43
2018-09-15T00:08:08.075Z,10.80
2018-09-15T00:10:35.548Z,15.63
2018-09-15T00:13:02.742Z,11.37
2018-09-15T00:15:29.757Z,14.73
2018-09-15T00:17:58.499Z,12.87
2018-09-15T00:20:25.635Z,15.17
2018-09-15T00:22:52.631Z,11.20
2018-09-15T00:25:19.978Z,12.20
2018-09-15T00:27:46.958Z,18.20
2018-09-15T00:30:14.032Z,15.97
2018-09-15T00:32:41.298Z,18.47
2018-09-15T00:35:08.355Z,19.90
2018-09-15T00:37:35.375Z,12.13
2018-09-15T00:40:02.745Z,18.83
2018-09-15T00:42:29.732Z,13.30
2018-09-15T00:44:57.001Z,13.37
2018-09-15T00:47:24.448Z,21.40
2018-09-15T00:49:51.435Z,19.33
2018-09-15T00:52:18.446Z,14.47
2018-09-15T00:54:45.818Z,18.03
2018-09-15T00:57:12.806Z,17.60
2018-09-15T00:59:39.902Z,18.03
2018-09-15T01:02:06.963Z,23.03
2018-09-15T01:04:34.012Z,12.80
2018-09-15T01:07:01.044Z,14.97
2018-09-15T01:09:28.479Z,20.57
2018-09-15T01:11:55.587Z,15.23
2018-09-15T01:14:22.623Z,15.27
2018-09-15T01:16:49.889Z,18.47
2018-09-15T01:19:16.925Z,18.80
2018-09-15T01:21:43.987Z,17.00
2018-09-15T01:24:11.073Z,16.77
2018-09-15T01:26:38.134Z,14.33
2018-09-15T01:29:05.206Z,23.50
2018-09-15T01:31:32.734Z,17.57
2018-09-15T01:33:59.807Z,17.53
2018-09-15T01:39:01.142Z,15.80
2018-09-15T01:41:28.242Z,14.20
2018-09-15T01:43:55.334Z,16.60
2018-09-15T01:46:22.817Z,18.83
2018-09-15T01:48:49.918Z,17.30
2018-09-15T01:51:16.960Z,14.27
2018-09-15T01:53:44.031Z,15.07
2018-09-15T01:56:11.173Z,16.70
2018-09-15T01:58:38.197Z,17.83
2018-09-15T02:01:05.331Z,16.90
2018-09-15T02:03:32.355Z,17.47
2018-09-15T02:05:59.414Z,15.53
2018-09-15T02:08:26.874Z,18.77
2018-09-15T02:10:53.956Z,18.50
2018-09-15T02:13:21.836Z,18.73
2018-09-15T02:15:49.222Z,14.33
2018-09-15T02:18:17.309Z,11.83
2018-09-15T02:20:44.385Z,12.70
2018-09-15T02:23:11.889Z,15.80
2018-09-15T02:25:38.990Z,14.33
2018-09-15T02:28:06.057Z,22.80
2018-09-15T02:30:33.474Z,14.77
2018-09-15T02:33:00.516Z,20.87
2018-09-15T02:35:27.573Z,19.97
2018-09-15T02:37:54.653Z,18.30
2018-09-15T02:40:21.735Z,19.23
2018-09-15T02:42:48.920Z,16.27
2018-09-15T02:45:16.248Z,20.67
2018-09-15T02:47:43.232Z,16.63
2018-09-15T02:50:10.238Z,20.47
2018-09-15T02:52:37.228Z,24.10
2018-09-15T02:55:04.573Z,17.03
2018-09-15T02:57:31.551Z,20.87
2018-09-15T02:59:58.829Z,17.00
2018-09-15T03:02:25.813Z,16.37
2018-09-15T03:04:52.813Z,16.77
2018-09-15T03:07:20.120Z,17.10
2018-09-15T03:09:47.121Z,18.03
2018-09-15T03:12:14.176Z,18.70
2018-09-15T03:14:41.425Z,18.87
2018-09-15T03:17:08.372Z,18.23
2018-09-15T03:19:35.344Z,18.17
2018-09-15T03:22:02.346Z,16.93
2018-09-15T03:24:29.335Z,16.10
2018-09-15T03:26:56.331Z,16.30
2018-09-15T03:29:23.763Z,16.50
2018-09-15T03:31:50.789Z,16.77
2018-09-15T03:34:17.808Z,16.67
2018-09-15T03:36:45.205Z,21.23
2018-09-15T03:39:12.701Z,19.53
2018-09-15T03:41:40.195Z,20.27
2018-09-15T03:44:07.371Z,14.40
2018-09-15T03:46:34.371Z,16.73
2018-09-15T03:49:01.328Z,16.73
2018-09-15T03:51:28.347Z,21.37
2018-09-15T03:53:55.309Z,20.00
2018-09-15T03:56:22.354Z,17.47
2018-09-15T03:58:49.724Z,23.23
2018-09-15T04:01:16.847Z,21.23
2018-09-15T04:03:43.873Z,19.37
2018-09-15T04:06:11.280Z,18.47
2018-09-15T04:08:38.321Z,18.17
2018-09-15T04:11:05.338Z,20.90
2018-09-15T04:13:32.760Z,18.60
2018-09-15T04:15:59.759Z,19.47
2018-09-15T04:18:26.778Z,20.77
2018-09-15T04:20:53.823Z,22.53
2018-09-15T04:23:20.788Z,23.73
2018-09-15T04:25:47.786Z,19.20
2018-09-15T04:28:15.228Z,21.03
2018-09-15T04:30:42.483Z,23.97
2018-09-15T04:33:09.721Z,22.80
2018-09-15T04:35:37.046Z,19.80
2018-09-15T04:38:04.104Z,18.60
2018-09-15T04:40:31.111Z,26.80
2018-09-15T04:42:58.535Z,18.80
2018-09-15T04:45:25.480Z,22.83
2018-09-15T04:47:52.482Z,20.33
2018-09-15T04:50:19.445Z,24.93
2018-09-15T04:52:46.569Z,21.97
2018-09-15T04:55:13.607Z,32.50
2018-09-15T04:57:41.026Z,22.10
2018-09-15T05:00:07.991Z,23.97
2018-09-15T05:02:35.075Z,25.97
2018-09-15T05:05:02.178Z,21.50
2018-09-15T05:07:29.169Z,31.23
2018-09-15T05:09:56.219Z,22.23
2018-09-15T05:12:23.540Z,25.80
2018-09-15T05:14:50.585Z,24.93
2018-09-15T05:17:17.735Z,23.57
2018-09-15T05:19:45.077Z,20.47
2018-09-15T05:22:12.127Z,28.60
2018-09-15T05:24:39.112Z,18.50
2018-09-15T05:27:06.198Z,34.27
2018-09-15T05:29:33.206Z,20.40
2018-09-15T05:32:00.245Z,19.00
2018-09-15T05:34:27.541Z,27.60
2018-09-15T05:36:54.520Z,22.10
2018-09-15T05:39:21.506Z,19.97
2018-09-15T05:41:48.771Z,24.30
2018-09-15T05:44:15.795Z,21.00
2018-09-15T05:46:42.797Z,17.53
2018-09-15T05:49:10.015Z,16.90
2018-09-15T05:51:37.036Z,18.97
2018-09-15T05:54:04.042Z,17.77
2018-09-15T05:56:31.071Z,16.07
2018-09-15T05:58:58.137Z,16.77
2018-09-15T06:01:25.419Z,16.07
2018-09-15T06:03:52.781Z,14.83
2018-09-15T06:06:19.755Z,18.90
2018-09-15T06:08:46.807Z,13.50
2018-09-15T06:11:13.922Z,18.37
2018-09-15T06:13:41.051Z,16.90
2018-09-15T06:16:08.126Z,18.97
2018-09-15T06:18:35.578Z,19.10
2018-09-15T06:21:02.582Z,14.70
2018-09-15T06:23:29.599Z,16.33
2018-09-15T06:25:56.605Z,10.07
2018-09-15T06:28:23.619Z,16.67
2018-09-15T06:30:50.628Z,15.70
2018-09-15T06:33:17.915Z,14.90
2018-09-15T06:35:44.927Z,12.93
2018-09-15T06:38:11.909Z,19.73
2018-09-15T06:40:39.181Z,17.50
2018-09-15T06:43:06.276Z,26.63
2018-09-15T06:45:33.292Z,18.70
2018-09-15T06:48:00.654Z,11.57
2018-09-15T06:50:27.687Z,17.40
2018-09-15T06:52:54.761Z,21.27
2018-09-15T06:55:21.744Z,15.80
2018-09-15T06:57:48.792Z,16.67
2018-09-15T07:00:15.851Z,18.00
2018-09-15T07:02:43.762Z,16.70
2018-09-15T07:05:11.512Z,18.97
2018-09-15T07:07:38.945Z,14.10
2018-09-15T07:10:07.045Z,16.77
2018-09-15T07:12:34.138Z,18.10
2018-09-15T07:15:01.261Z,19.60
2018-09-15T07:17:28.688Z,15.20
2018-09-15T07:19:55.792Z,17.53
2018-09-15T07:22:22.945Z,21.03
2018-09-15T07:24:50.049Z,14.90
2018-09-15T07:27:17.076Z,14.53
2018-09-15T07:29:44.257Z,14.23
2018-09-15T07:32:11.714Z,11.93
2018-09-15T07:34:38.948Z,16.70
2018-09-15T07:37:05.994Z,17.03
2018-09-15T07:39:33.348Z,13.97
2018-09-15T07:42:00.424Z,13.47
2018-09-15T07:44:27.525Z,9.90
2018-09-15T07:46:54.892Z,15.03
2018-09-15T07:49:21.944Z,10.57
2018-09-15T07:51:49.131Z,10.97
2018-09-15T07:54:16.221Z,11.00
2018-09-15T07:56:43.292Z,7.60
2018-09-15T07:59:10.451Z,7.93
2018-09-15T08:01:37.864Z,14.67
2018-09-15T08:04:05.043Z,9.43
2018-09-15T08:06:32.323Z,10.17
2018-09-15T08:08:59.754Z,10.13
2018-09-15T08:11:26.969Z,8.07
2018-09-15T08:13:54.110Z,6.73
2018-09-15T08:16:22.497Z,6.10
2018-09-15T08:18:49.694Z,6.60
2018-09-15T08:21:16.871Z,10.70
2018-09-15T08:23:43.923Z,5.30
2018-09-15T08:26:11.127Z,4.87
2018-09-15T08:28:38.173Z,5.63
2018-09-15T08:31:05.653Z,6.13
2018-09-15T08:33:32.753Z,7.57
2018-09-15T08:35:59.864Z,7.00
2018-09-15T08:38:27.305Z,6.03
2018-09-15T08:40:54.466Z,4.47
2018-09-15T08:43:21.566Z,12.93
2018-09-15T08:45:50.415Z,4.80
2018-09-15T08:48:17.624Z,5.50
2018-09-15T08:50:44.745Z,10.07
2018-09-15T08:53:11.870Z,3.70
2018-09-15T08:55:38.912Z,7.90
2018-09-15T08:58:06.017Z,5.83
2018-09-15T09:00:33.445Z,17.70
2018-09-15T09:03:00.484Z,10.20
2018-09-15T09:05:27.586Z,13.90
2018-09-15T09:07:54.940Z,29.10
2018-09-15T09:10:22.166Z,38.40
2018-09-15T09:12:49.229Z,39.83
2018-09-15T09:15:16.322Z,31.60
2018-09-15T09:17:43.408Z,20.47
2018-09-15T09:20:10.533Z,38.73
2018-09-15T09:22:38.022Z,13.47
2018-09-15T09:25:05.135Z,10.27
2018-09-15T09:27:32.256Z,17.83
2018-09-15T09:29:59.714Z,11.90
2018-09-15T09:32:26.822Z,14.40
2018-09-15T09:34:53.903Z,10.07
2018-09-15T09:37:20.990Z,12.20
2018-09-15T09:39:48.044Z,24.63
2018-09-15T09:42:15.088Z,15.77
2018-09-15T09:44:42.538Z,28.40
2018-09-15T09:47:09.576Z,24.60
2018-09-15T09:49:36.696Z,19.70
2018-09-15T09:52:04.022Z,18.67
2018-09-15T09:54:31.170Z,14.27
2018-09-15T09:56:58.370Z,15.67
2018-09-15T09:59:25.431Z,22.57
2018-09-15T10:01:54.555Z,22.77
2018-09-15T10:04:21.668Z,7.00
2018-09-15T10:06:49.222Z,5.23
2018-09-15T10:09:16.335Z,5.47
2018-09-15T10:11:43.867Z,6.67
2018-09-15T10:14:10.946Z,10.67
2018-09-15T10:16:38.232Z,5.70
2018-09-15T10:19:05.946Z,5.80
2018-09-15T10:21:33.479Z,2.63
2018-09-15T10:24:00.746Z,4.03
2018-09-15T10:26:27.829Z,5.43
2018-09-15T10:28:55.304Z,9.17
2018-09-15T10:31:22.373Z,3.03
2018-09-15T10:33:49.456Z,2.90
2018-09-15T10:36:16.586Z,3.93
2018-09-15T10:38:43.694Z,15.03
2018-09-15T10:41:10.852Z,12.40
2018-09-15T10:43:38.200Z,10.70
2018-09-15T10:46:05.251Z,7.37
2018-09-15T10:48:32.391Z,3.40
2018-09-15T10:50:59.869Z,4.20
2018-09-15T10:53:26.949Z,9.73
2018-09-15T10:55:54.067Z,16.53
2018-09-15T10:58:21.749Z,12.40
2018-09-15T11:00:48.837Z,15.10
2018-09-15T11:03:15.956Z,15.67
2018-09-15T11:05:43.154Z,6.23
2018-09-15T11:08:10.252Z,16.17
2018-09-15T11:10:37.358Z,8.60
2018-09-15T11:13:05.016Z,3.80
2018-09-15T11:15:32.114Z,13.60
2018-09-15T11:17:59.213Z,5.87
2018-09-15T11:20:26.556Z,4.30
2018-09-15T11:22:53.774Z,2.60
2018-09-15T11:25:20.833Z,7.27
2018-09-15T11:27:48.158Z,9.97
2018-09-15T11:30:15.233Z,16.50
2018-09-15T11:32:43.534Z,8.10
2018-09-15T11:35:10.938Z,11.93
2018-09-15T11:37:38.066Z,9.10
2018-09-15T11:40:05.183Z,18.30
2018-09-15T11:42:32.356Z,30.67
2018-09-15T11:44:59.426Z,16.93
2018-09-15T11:47:26.572Z,12.47
2018-09-15T11:49:53.951Z,10.80
2018-09-15T11:52:21.041Z,21.90
2018-09-15T11:54:48.161Z,3.00
2018-09-15T11:57:15.319Z,8.10
2018-09-15T11:59:42.394Z,7.90
2018-09-15T12:02:09.522Z,9.67
2018-09-15T12:04:37.032Z,5.13
2018-09-15T12:07:04.347Z,4.67
2018-09-15T12:09:31.440Z,4.60
2018-09-15T12:11:59.022Z,8.13
2018-09-15T12:14:26.389Z,5.40
2018-09-15T12:16:53.511Z,7.03
2018-09-15T12:19:20.747Z,2.13
2018-09-15T12:21:47.844Z,5.83
2018-09-15T12:24:15.004Z,4.10
2018-09-15T12:26:42.444Z,4.00
2018-09-15T12:29:09.537Z,6.10
2018-09-15T12:31:36.593Z,5.23
2018-09-15T12:34:04.238Z,3.33
2018-09-15T12:36:31.375Z,3.80
2018-09-15T12:38:58.490Z,5.10
2018-09-15T12:41:26.001Z,10.80
2018-09-15T12:43:53.149Z,6.47
2018-09-15T12:46:20.243Z,5.43
2018-09-15T12:48:47.763Z,6.17
2018-09-15T12:51:14.860Z,2.60
2018-09-15T12:53:42.016Z,2.97
2018-09-15T12:56:09.438Z,1.73
2018-09-15T12:58:36.533Z,2.80
2018-09-15T13:01:03.730Z,8.30
2018-09-15T13:03:31.400Z,3.90
2018-09-15T13:05:58.509Z,3.17
2018-09-15T13:08:25.600Z,5.87
2018-09-15T13:10:54.303Z,2.07
2018-09-15T13:13:21.432Z,4.60
2018-09-15T13:15:48.577Z,2.10
2018-09-15T13:18:15.885Z,2.97
2018-09-15T13:20:43.062Z,2.50
2018-09-15T13:23:10.201Z,24.77
2018-09-15T13:25:37.722Z,4.30
2018-09-15T13:28:04.850Z,4.23
2018-09-15T13:30:32.013Z,4.17
2018-09-15T13:32:59.420Z,4.20
2018-09-15T13:35:26.532Z,5.10
2018-09-15T13:37:53.730Z,2.53
2018-09-15T13:40:21.046Z,2.30
2018-09-15T13:42:48.186Z,2.20
2018-09-15T13:45:15.459Z,8.50
2018-09-15T13:47:42.845Z,9.47
2018-09-15T13:50:10.042Z,26.47
2018-09-15T13:52:37.379Z,20.90
2018-09-15T13:55:05.040Z,13.83
2018-09-15T13:57:32.151Z,9.50
2018-09-15T13:59:59.229Z,32.73
2018-09-15T14:02:26.424Z,96.30
2018-09-15T14:04:53.554Z,33.50
2018-09-15T14:07:20.687Z,21.63
2018-09-15T14:09:51.243Z,33.17
2018-09-15T14:12:18.328Z,21.90
2018-09-15T14:14:45.445Z,25.67
2018-09-15T14:17:14.684Z,6.87
2018-09-15T14:19:41.766Z,16.33
2018-09-15T14:22:08.895Z,10.63
2018-09-15T14:24:36.334Z,4.40
2018-09-15T14:27:03.471Z,4.90
2018-09-15T14:29:30.531Z,6.67
2018-09-15T14:31:57.888Z,6.97
2018-09-15T14:34:24.997Z,4.40
2018-09-15T14:36:52.123Z,7.23
2018-09-15T14:39:19.597Z,14.23
2018-09-15T14:41:46.702Z,7.90
2018-09-15T14:44:13.815Z,6.83
2018-09-15T14:46:41.023Z,6.30
2018-09-15T14:49:08.181Z,10.03
2018-09-15T14:51:35.323Z,6.07
2018-09-15T14:54:02.873Z,9.97
2018-09-15T14:56:30.062Z,9.67
2018-09-15T14:58:57.254Z,8.63
2018-09-15T15:01:24.595Z,17.50
2018-09-15T15:03:51.740Z,18.57
2018-09-15T15:06:18.875Z,23.33
2018-09-15T15:08:46.684Z,10.67
2018-09-15T15:11:13.756Z,21.33
2018-09-15T15:13:40.819Z,10.60
2018-09-15T15:16:08.236Z,13.87
2018-09-15T15:18:35.333Z,39.53
2018-09-15T15:21:02.408Z,56.23
2018-09-15T15:23:29.859Z,9.20
2018-09-15T15:25:57.044Z,67.80
2018-09-15T15:28:24.264Z,216.73
2018-09-15T15:30:51.675Z,132.23
2018-09-15T15:33:18.767Z,23.60
2018-09-15T15:35:49.772Z,40.83
2018-09-15T15:38:17.284Z,57.07
2018-09-15T15:40:44.375Z,45.97
2018-09-15T15:43:11.438Z,15.23
2018-09-15T15:45:38.886Z,10.70
2018-09-15T15:48:05.964Z,17.60
2018-09-15T15:50:33.187Z,34.00
2018-09-15T15:53:00.666Z,33.53
2018-09-15T15:55:27.701Z,9.83
2018-09-15T15:57:54.736Z,8.00
2018-09-15T16:00:22.212Z,15.33
2018-09-15T16:02:49.277Z,10.00
2018-09-15T16:05:16.274Z,6.37
2018-09-15T16:07:43.666Z,7.40
2018-09-15T16:10:10.613Z,6.73
2018-09-15T16:12:37.878Z,7.03
2018-09-15T16:15:05.264Z,5.80
2018-09-15T16:17:32.351Z,5.87
2018-09-15T16:19:59.539Z,6.13
2018-09-15T16:22:26.571Z,3.93
2018-09-15T16:24:53.669Z,7.10
2018-09-15T16:27:20.704Z,10.07
2018-09-15T16:29:48.105Z,7.90
2018-09-15T16:32:15.147Z,6.30
2018-09-15T16:34:42.302Z,6.00
2018-09-15T16:37:09.510Z,8.00
2018-09-15T16:39:36.567Z,6.17
2018-09-15T16:42:03.548Z,5.27
2018-09-15T16:44:31.035Z,9.70
2018-09-15T16:46:58.090Z,2.63
2018-09-15T16:49:25.126Z,4.53
2018-09-15T16:51:52.576Z,6.23
2018-09-15T16:54:19.750Z,2.80
2018-09-15T16:56:46.817Z,6.53
2018-09-15T16:59:14.173Z,7.00
2018-09-15T17:01:41.246Z,3.20
2018-09-15T17:04:08.442Z,10.50
2018-09-15T17:06:36.578Z,10.20
2018-09-15T17:09:07.003Z,26.70
2018-09-15T17:11:34.010Z,42.50
2018-09-15T17:14:01.593Z,23.13
2018-09-15T17:16:28.653Z,99.70
2018-09-15T17:18:55.640Z,107.37
2018-09-15T17:21:41.887Z,58.33
2018-09-15T17:24:08.971Z,58.03
2018-09-15T17:26:35.980Z,35.07
2018-09-15T17:29:03.261Z,34.60
2018-09-15T17:31:30.241Z,12.30
2018-09-15T17:33:57.344Z,12.43
2018-09-15T17:36:24.553Z,8.13
2018-09-15T17:38:51.517Z,7.93
2018-09-15T17:41:19.544Z,9.33
2018-09-15T17:43:46.976Z,5.17
2018-09-15T17:46:13.938Z,8.63
2018-09-15T17:48:40.964Z,4.20
2018-09-15T17:51:08.319Z,8.37
2018-09-15T17:53:35.445Z,6.10
2018-09-15T17:56:02.451Z,9.33
2018-09-15T17:58:29.876Z,8.37
2018-09-15T18:00:56.824Z,8.47
2018-09-15T18:03:23.837Z,9.70
2018-09-15T18:05:51.068Z,8.17
2018-09-15T18:08:18.053Z,7.50
2018-09-15T18:10:44.998Z,15.63
2018-09-15T18:13:12.444Z,16.30
2018-09-15T18:15:39.435Z,18.97
2018-09-15T18:18:06.436Z,25.30
2018-09-15T18:20:33.676Z,15.23
2018-09-15T18:23:00.754Z,17.27
2018-09-15T18:25:27.949Z,9.43
2018-09-15T18:27:55.270Z,9.43
2018-09-15T18:30:22.210Z,12.10
2018-09-15T18:32:49.252Z,9.67
2018-09-15T18:35:16.607Z,14.00
2018-09-15T18:37:43.654Z,11.90
2018-09-15T18:40:10.679Z,7.93
2018-09-15T18:42:38.127Z,8.77
2018-09-15T18:45:05.558Z,9.70
2018-09-15T18:47:32.734Z,9.43
2018-09-15T18:50:00.026Z,8.03
2018-09-15T18:52:27.138Z,9.07
2018-09-15T18:54:54.165Z,9.73
2018-09-15T18:57:21.553Z,10.00
2018-09-15T18:59:48.489Z,7.73
2018-09-15T19:02:15.473Z,6.47
2018-09-15T19:04:42.665Z,11.20
2018-09-15T19:07:09.715Z,14.10
2018-09-15T19:09:36.977Z,9.90
2018-09-15T19:12:04.455Z,8.10
2018-09-15T19:14:31.569Z,4.47
2018-09-15T19:16:58.659Z,8.50
2018-09-15T19:19:25.917Z,18.73
2018-09-15T19:21:52.870Z,9.60
2018-09-15T19:24:19.835Z,10.83
2018-09-15T19:26:47.266Z,11.00
2018-09-15T19:29:14.106Z,11.93
2018-09-15T19:31:41.162Z,13.73
2018-09-15T19:34:08.393Z,16.87
2018-09-15T19:36:35.387Z,13.00
2018-09-15T19:39:03.421Z,13.83
2018-09-15T19:41:30.389Z,14.40
2018-09-15T19:43:57.352Z,10.37
2018-09-15T19:46:24.344Z,10.50
2018-09-15T19:48:51.972Z,10.53
2018-09-15T19:51:18.956Z,6.97
2018-09-15T19:53:45.915Z,8.30
2018-09-15T19:56:13.173Z,6.57
2018-09-15T19:58:40.166Z,4.43
2018-09-15T20:01:07.089Z,7.67
2018-09-15T20:03:34.373Z,11.83
2018-09-15T20:06:01.415Z,6.13
2018-09-15T20:08:28.355Z,6.00
2018-09-15T20:10:55.345Z,8.40
2018-09-15T20:13:22.422Z,9.13
2018-09-15T20:15:49.494Z,11.13
2018-09-15T20:18:16.800Z,15.37
2018-09-15T20:20:44.433Z,13.53
2018-09-15T20:23:13.800Z,7.03
2018-09-15T20:25:43.544Z,17.30
2018-09-15T20:28:12.996Z,16.20
2018-09-15T20:30:41.739Z,10.20
2018-09-15T20:33:11.218Z,9.60
2018-09-15T20:35:40.422Z,11.80
2018-09-15T20:38:09.487Z,11.60
2018-09-15T20:40:36.968Z,10.70
2018-09-15T20:43:05.759Z,11.67
2018-09-15T20:45:34.812Z,18.97
2018-09-15T20:48:02.205Z,12.50
2018-09-15T20:50:29.156Z,10.80
2018-09-15T20:52:56.247Z,21.33
2018-09-15T20:55:23.551Z,31.50
2018-09-15T20:57:50.579Z,77.63
2018-09-15T21:00:17.575Z,50.33
2018-09-15T21:02:45.309Z,34.90
2018-09-15T21:05:12.293Z,14.57
2018-09-15T21:07:39.333Z,46.27
2018-09-15T21:10:06.617Z,70.00
2018-09-15T21:12:33.990Z,38.03
2018-09-15T21:15:01.187Z,68.07
2018-09-15T21:17:28.506Z,39.53
2018-09-15T21:26:55.307Z,19.90
2018-09-15T21:29:22.386Z,17.20
2018-09-15T21:31:49.434Z,21.67
2018-09-15T21:34:16.729Z,16.47
2018-09-15T21:36:43.746Z,13.07
2018-09-15T21:39:12.170Z,13.57
2018-09-15T21:41:39.834Z,14.43
2018-09-15T21:44:07.222Z,9.67
2018-09-15T21:46:34.235Z,12.10
2018-09-15T21:49:01.286Z,13.80
2018-09-15T21:51:28.312Z,11.87
2018-09-15T21:53:55.297Z,12.20
2018-09-15T21:56:22.624Z,11.93
2018-09-15T21:58:49.668Z,16.90
2018-09-15T22:01:16.806Z,24.83
2018-09-15T22:03:49.984Z,8.10
2018-09-15T22:06:17.031Z,17.33
2018-09-15T22:08:44.150Z,13.13
2018-09-15T22:11:11.591Z,17.37
2018-09-15T22:13:38.658Z,19.80
2018-09-15T22:16:05.674Z,16.90
2018-09-15T22:18:32.693Z,19.53
2018-09-15T22:20:59.676Z,25.40
2018-09-15T22:23:26.621Z,19.10
2018-09-15T22:25:53.758Z,13.90
2018-09-15T22:28:20.879Z,25.30
2018-09-15T22:30:47.843Z,20.70
2018-09-15T22:33:15.211Z,27.87
2018-09-15T22:35:42.159Z,10.73
2018-09-15T22:38:09.125Z,10.80
2018-09-15T22:40:36.392Z,15.50
2018-09-15T22:43:03.478Z,10.77
2018-09-15T22:45:30.573Z,12.80
2018-09-15T22:47:58.042Z,10.80
2018-09-15T22:50:25.347Z,12.27
2018-09-15T22:52:52.425Z,15.40
2018-09-15T22:55:19.571Z,11.03
2018-09-15T22:57:46.678Z,9.20
2018-09-15T23:00:13.756Z,16.97
2018-09-15T23:02:41.221Z,14.93
2018-09-15T23:05:08.308Z,13.77
2018-09-15T23:07:35.390Z,9.10
2018-09-15T23:10:02.629Z,14.43
2018-09-15T23:12:29.734Z,18.07
2018-09-15T23:14:56.788Z,17.10
2018-09-15T23:17:24.258Z,19.33
2018-09-15T23:19:51.384Z,15.47
2018-09-15T23:22:18.731Z,26.13
2018-09-15T23:24:46.565Z,20.57
2018-09-15T23:27:13.652Z,13.80
2018-09-15T23:29:40.781Z,13.00
2018-09-15T23:32:07.885Z,13.90
2018-09-15T23:34:35.092Z,11.43
2018-09-15T23:37:02.304Z,13.27
2018-09-15T23:39:29.640Z,14.50
2018-09-15T23:41:56.889Z,19.17
2018-09-15T23:44:24.067Z,11.67
2018-09-15T23:46:51.623Z,13.00
2018-09-15T23:49:18.680Z,16.60
2018-09-15T23:51:45.846Z,12.17
2018-09-15T23:54:12.945Z,12.43
2018-09-15T23:56:40.254Z,9.23
2018-09-15T23:59:07.390Z,12.17
